createdAt,value
2018-10-21T00:00:08.103Z,21.7
2018-10-21T00:02:05.464Z,21.7
2018-10-21T00:04:05.406Z,21.7
2018-10-21T00:06:05.103Z,21.7
2018-10-21T00:08:07.356Z,21.7
2018-10-21T00:10:05.514Z,21.7
2018-10-21T00:12:05.796Z,21.7
2018-10-21T00:14:05.164Z,21.7
2018-10-21T00:16:05.205Z,21.7
2018-10-21T00:18:04.960Z,21.7
2018-10-21T00:20:05.148Z,21.7
2018-10-21T00:22:05.482Z,21.7
2018-10-21T00:24:12.352Z,21.7
2018-10-21T00:26:07.566Z,21.7
2018-10-21T00:28:05.240Z,21.7
2018-10-21T00:30:04.957Z,21.7
2018-10-21T00:32:04.872Z,21.6
2018-10-21T00:34:08.062Z,21.6
2018-10-21T00:36:04.739Z,21.6
2018-10-21T00:38:05.459Z,21.6
2018-10-21T00:40:04.720Z,21.6
2018-10-21T00:42:05.520Z,21.7
2018-10-21T00:44:05.278Z,21.7
2018-10-21T00:46:05.011Z,21.7
2018-10-21T00:48:04.699Z,21.6
2018-10-21T00:50:05.366Z,21.7
2018-10-21T00:52:05.140Z,21.7
2018-10-21T00:54:04.917Z,21.7
2018-10-21T00:56:05.662Z,21.6
2018-10-21T00:58:05.414Z,21.6
2018-10-21T01:00:05.097Z,21.7
2018-10-21T01:02:04.840Z,21.6
2018-10-21T01:04:05.571Z,21.7
2018-10-21T01:06:10.335Z,21.6
2018-10-21T01:08:05.132Z,21.6
2018-10-21T01:10:04.849Z,21.6
2018-10-21T01:12:05.638Z,21.6
2018-10-21T01:14:07.924Z,21.7
2018-10-21T01:16:04.685Z,21.6
2018-10-21T01:18:08.141Z,21.6
2018-10-21T01:20:07.927Z,21.6
2018-10-21T01:22:07.145Z,21.6
2018-10-21T01:24:04.815Z,21.6
2018-10-21T01:26:05.593Z,21.7
2018-10-21T01:28:05.271Z,21.6
2018-10-21T01:30:04.948Z,21.6
2018-10-21T01:32:04.757Z,21.5
2018-10-21T01:34:05.445Z,21.5
2018-10-21T01:36:05.222Z,21.6
2018-10-21T01:38:05.197Z,21.6
2018-10-21T01:40:05.319Z,21.6
2018-10-21T01:42:07.613Z,21.6
2018-10-21T01:44:05.289Z,21.6
2018-10-21T01:46:04.958Z,21.6
2018-10-21T01:48:04.736Z,21.6
2018-10-21T01:50:05.448Z,21.6
2018-10-21T01:52:05.180Z,21.5
2018-10-21T01:54:07.499Z,21.6
2018-10-21T01:56:07.742Z,21.6
2018-10-21T01:58:10.484Z,21.6
2018-10-21T02:00:05.136Z,21.6
2018-10-21T02:02:07.363Z,21.6
2018-10-21T02:04:05.247Z,21.6
2018-10-21T02:06:05.006Z,21.6
2018-10-21T02:08:04.754Z,21.6
2018-10-21T02:10:05.430Z,21.6
2018-10-21T02:12:05.128Z,21.6
2018-10-21T02:14:04.956Z,21.6
2018-10-21T02:16:07.394Z,21.5
2018-10-21T02:18:04.838Z,21.5
2018-10-21T02:20:05.576Z,21.5
2018-10-21T02:22:05.292Z,21.5
2018-10-21T02:24:08.085Z,21.5
2018-10-21T02:26:07.349Z,21.5
2018-10-21T02:28:04.822Z,21.5
2018-10-21T02:30:04.642Z,21.5
2018-10-21T02:32:05.338Z,21.6
2018-10-21T02:34:05.189Z,21.5
2018-10-21T02:36:07.406Z,21.6
2018-10-21T02:38:05.097Z,21.5
2018-10-21T02:40:04.788Z,21.6
2018-10-21T02:42:05.490Z,21.6
2018-10-21T02:44:05.157Z,21.6
2018-10-21T02:46:04.904Z,21.5
2018-10-21T02:48:08.111Z,21.5
2018-10-21T02:50:04.819Z,21.5
2018-10-21T02:52:05.605Z,21.5
2018-10-21T02:54:05.481Z,21.5
2018-10-21T02:56:07.735Z,21.5
2018-10-21T02:58:05.469Z,21.5
2018-10-21T03:00:05.177Z,21.5
2018-10-21T03:02:04.897Z,21.4
2018-10-21T03:04:04.697Z,21.4
2018-10-21T03:06:10.490Z,21.5
2018-10-21T03:08:05.253Z,21.5
2018-10-21T03:10:05.498Z,21.5
2018-10-21T03:12:05.172Z,21.5
2018-10-21T03:14:05.406Z,21.5
2018-10-21T03:16:05.114Z,21.5
2018-10-21T03:18:05.523Z,21.5
2018-10-21T03:20:05.378Z,21.4
2018-10-21T03:22:05.271Z,21.5
2018-10-21T03:24:07.589Z,21.4
2018-10-21T03:26:05.371Z,21.4
2018-10-21T03:28:05.602Z,21.4
2018-10-21T03:30:05.287Z,21.5
2018-10-21T03:32:05.015Z,21.5
2018-10-21T03:34:05.017Z,21.5
2018-10-21T03:36:05.578Z,21.5
2018-10-21T03:38:05.261Z,21.5
2018-10-21T03:40:05.014Z,21.5
2018-10-21T03:42:15.719Z,21.5
2018-10-21T03:44:15.591Z,21.4
2018-10-21T03:46:05.495Z,21.4
2018-10-21T03:48:04.933Z,21.4
2018-10-21T03:50:04.616Z,21.4
2018-10-21T03:52:05.383Z,21.4
2018-10-21T03:54:05.371Z,21.4
2018-10-21T03:56:10.102Z,21.4
2018-10-21T03:58:07.385Z,21.4
2018-10-21T04:00:05.510Z,21.4
2018-10-21T04:02:07.722Z,21.4
2018-10-21T04:04:05.363Z,21.4
2018-10-21T04:06:04.895Z,21.4
2018-10-21T04:08:05.100Z,21.4
2018-10-21T04:10:04.915Z,21.4
2018-10-21T04:12:05.009Z,21.4
2018-10-21T04:14:04.730Z,21.4
2018-10-21T04:16:05.578Z,21.4
2018-10-21T04:18:04.789Z,21.4
2018-10-21T04:20:05.502Z,21.4
2018-10-21T04:22:10.314Z,21.3
2018-10-21T04:24:05.152Z,21.4
2018-10-21T04:26:07.361Z,21.4
2018-10-21T04:28:05.682Z,21.3
2018-10-21T04:30:07.807Z,21.4
2018-10-21T04:32:08.021Z,21.4
2018-10-21T04:34:04.861Z,21.4
2018-10-21T04:36:04.930Z,21.4
2018-10-21T04:38:05.591Z,21.4
2018-10-21T04:40:05.289Z,21.5
2018-10-21T04:42:05.293Z,21.4
2018-10-21T04:44:05.009Z,21.3
2018-10-21T04:46:04.746Z,21.3
2018-10-21T04:48:09.900Z,21.4
2018-10-21T04:50:05.638Z,21.4
2018-10-21T04:52:08.045Z,21.3
2018-10-21T04:54:04.988Z,21.3
2018-10-21T04:56:04.623Z,21.4
2018-10-21T04:58:05.398Z,21.3
2018-10-21T05:00:05.372Z,21.4
2018-10-21T05:02:07.594Z,21.4
2018-10-21T05:04:05.288Z,21.4
2018-10-21T05:06:05.292Z,21.4
2018-10-21T05:08:10.050Z,21.4
2018-10-21T05:10:04.798Z,21.4
2018-10-21T05:12:04.652Z,21.4
2018-10-21T05:14:05.345Z,21.4
2018-10-21T05:16:05.713Z,21.4
2018-10-21T05:18:04.995Z,21.4
2018-10-21T05:20:07.300Z,21.4
2018-10-21T05:22:07.580Z,21.3
2018-10-21T05:24:05.590Z,21.3
2018-10-21T05:26:07.379Z,21.3
2018-10-21T05:28:05.201Z,21.3
2018-10-21T05:30:05.169Z,21.3
2018-10-21T05:32:05.456Z,21.3
2018-10-21T05:34:05.196Z,21.3
2018-10-21T05:36:05.400Z,21.3
2018-10-21T05:38:05.150Z,21.3
2018-10-21T05:40:04.929Z,21.3
2018-10-21T05:42:07.369Z,21.4
2018-10-21T05:44:07.631Z,21.3
2018-10-21T05:46:05.379Z,21.3
2018-10-21T05:48:05.365Z,21.3
2018-10-21T05:50:05.114Z,21.3
2018-10-21T05:52:07.984Z,21.3
2018-10-21T05:54:05.145Z,21.3
2018-10-21T05:56:07.416Z,21.3
2018-10-21T05:58:05.178Z,21.3
2018-10-21T06:00:10.674Z,21.3
2018-10-21T06:02:07.510Z,21.3
2018-10-21T06:04:05.264Z,21.3
2018-10-21T06:06:05.205Z,21.3
2018-10-21T06:08:04.927Z,21.4
2018-10-21T06:10:04.745Z,21.3
2018-10-21T06:12:04.749Z,21.3
2018-10-21T06:14:05.478Z,21.3
2018-10-21T06:16:04.833Z,21.3
2018-10-21T06:18:05.437Z,21.3
2018-10-21T06:20:04.710Z,21.2
2018-10-21T06:22:05.502Z,21.3
2018-10-21T06:24:05.506Z,21.3
2018-10-21T06:26:05.249Z,21.3
2018-10-21T06:28:04.888Z,21.3
2018-10-21T06:30:05.080Z,21.3
2018-10-21T06:32:09.797Z,21.3
2018-10-21T06:34:05.492Z,21.3
2018-10-21T06:36:07.713Z,21.4
2018-10-21T06:38:04.929Z,21.4
2018-10-21T06:40:04.674Z,21.5
2018-10-21T06:42:05.425Z,21.5
2018-10-21T06:44:10.173Z,21.5
2018-10-21T06:46:15.034Z,21.6
2018-10-21T06:48:07.236Z,21.6
2018-10-21T06:50:07.436Z,21.6
2018-10-21T06:52:05.170Z,21.7
2018-10-21T06:54:05.004Z,21.6
2018-10-21T06:56:04.712Z,21.6
2018-10-21T06:58:05.423Z,21.6
2018-10-21T07:00:05.078Z,21.6
2018-10-21T07:02:04.703Z,21.6
2018-10-21T07:04:05.479Z,21.7
2018-10-21T07:06:08.048Z,21.6
2018-10-21T07:08:04.771Z,21.6
2018-10-21T07:10:05.543Z,21.6
2018-10-21T07:12:05.513Z,21.6
2018-10-21T07:14:05.304Z,21.7
2018-10-21T07:16:05.094Z,21.7
2018-10-21T07:18:05.398Z,21.6
2018-10-21T07:20:12.683Z,21.7
2018-10-21T07:22:05.449Z,21.7
2018-10-21T07:24:05.428Z,21.7
2018-10-21T07:26:05.121Z,21.7
2018-10-21T07:28:04.986Z,21.7
2018-10-21T07:30:05.637Z,21.8
2018-10-21T07:32:15.454Z,21.8
2018-10-21T07:34:05.320Z,21.9
2018-10-21T07:36:05.241Z,21.8
2018-10-21T07:38:07.458Z,21.9
2018-10-21T07:41:30.309Z,21.9
2018-10-21T07:42:35.789Z,21.9
2018-10-21T07:44:04.796Z,22
2018-10-21T07:46:08.187Z,21.9
2018-10-21T07:48:07.410Z,22
2018-10-21T07:50:05.221Z,22
2018-10-21T07:52:05.600Z,22.1
2018-10-21T07:54:04.716Z,22.1
2018-10-21T07:56:07.932Z,22
2018-10-21T07:58:10.336Z,22.1
2018-10-21T08:00:05.500Z,22.1
2018-10-21T08:02:07.243Z,22.2
2018-10-21T08:04:07.585Z,22.2
2018-10-21T08:06:04.736Z,22.2
2018-10-21T08:08:05.449Z,22.3
2018-10-21T08:10:05.239Z,22.2
2018-10-21T08:12:10.385Z,22.3
2018-10-21T08:14:05.111Z,22.3
2018-10-21T08:16:07.366Z,22.3
2018-10-21T08:18:15.679Z,22.3
2018-10-21T08:20:05.350Z,22.3
2018-10-21T08:22:07.696Z,22.3
2018-10-21T08:24:04.685Z,22.3
2018-10-21T08:26:07.889Z,22.3
2018-10-21T08:28:05.643Z,22.3
2018-10-21T08:30:07.329Z,22.3
2018-10-21T08:32:10.111Z,22.2
2018-10-21T08:34:04.910Z,22.2
2018-10-21T08:36:05.510Z,22.3
2018-10-21T08:38:07.260Z,22.3
2018-10-21T08:40:05.282Z,22.2
2018-10-21T08:42:04.792Z,22.2
2018-10-21T08:44:05.529Z,22.3
2018-10-21T08:46:05.314Z,22.3
2018-10-21T08:48:05.494Z,22.4
2018-10-21T08:50:05.313Z,22.3
2018-10-21T08:52:09.996Z,22.3
2018-10-21T08:54:05.251Z,22.3
2018-10-21T08:56:07.473Z,22.4
2018-10-21T08:58:07.825Z,22.3
2018-10-21T09:00:05.381Z,22.3
2018-10-21T09:02:05.196Z,22.4
2018-10-21T09:04:05.569Z,22.5
2018-10-21T09:06:07.708Z,22.4
2018-10-21T09:08:04.895Z,22.4
2018-10-21T09:10:05.629Z,22.4
2018-10-21T09:12:04.772Z,22.5
2018-10-21T09:14:05.517Z,22.7
2018-10-21T09:16:05.229Z,22.8
2018-10-21T09:18:05.563Z,22.9
2018-10-21T09:20:05.331Z,22.9
2018-10-21T09:22:05.415Z,22.8
2018-10-21T09:24:15.017Z,22.7
2018-10-21T09:26:04.759Z,22.6
2018-10-21T09:28:05.559Z,22.6
2018-10-21T09:30:07.234Z,22.6
2018-10-21T09:32:15.114Z,22.6
2018-10-21T09:34:05.056Z,22.6
2018-10-21T09:36:05.207Z,22.5
2018-10-21T09:38:04.909Z,22.6
2018-10-21T09:40:10.750Z,22.8
2018-10-21T09:42:07.528Z,22.8
2018-10-21T09:44:05.466Z,22.8
2018-10-21T09:46:05.227Z,22.7
2018-10-21T09:48:05.176Z,22.7
2018-10-21T09:50:04.905Z,22.7
2018-10-21T09:52:05.414Z,22.6
2018-10-21T09:54:05.190Z,22.7
2018-10-21T09:56:04.892Z,22.7
2018-10-21T09:58:05.641Z,22.6
2018-10-21T10:00:07.342Z,22.6
2018-10-21T10:02:05.111Z,22.6
2018-10-21T10:04:04.884Z,22.7
2018-10-21T10:06:07.188Z,22.5
2018-10-21T10:08:07.412Z,22.5
2018-10-21T10:10:07.723Z,22.4
2018-10-21T10:12:04.791Z,22.4
2018-10-21T10:14:05.491Z,22.4
2018-10-21T10:16:07.332Z,22.3
2018-10-21T10:18:07.958Z,22.2
2018-10-21T10:20:04.690Z,22.2
2018-10-21T10:22:05.055Z,22.3
2018-10-21T10:24:05.117Z,22.3
2018-10-21T10:26:05.366Z,22.3
2018-10-21T10:28:07.279Z,22.3
2018-10-21T10:30:05.261Z,22.2
2018-10-21T10:32:05.545Z,22.2
2018-10-21T10:34:04.829Z,22.2
2018-10-21T10:36:04.765Z,22.2
2018-10-21T10:38:05.602Z,22.1
2018-10-21T10:40:05.467Z,22.2
2018-10-21T10:42:05.831Z,22.2
2018-10-21T10:44:07.949Z,22.2
2018-10-21T10:46:04.762Z,22.2
2018-10-21T10:48:05.354Z,22.2
2018-10-21T10:50:10.139Z,22.1
2018-10-21T10:52:04.909Z,22.1
2018-10-21T10:54:05.429Z,22.1
2018-10-21T10:56:05.124Z,22.1
2018-10-21T10:58:04.846Z,22.1
2018-10-21T11:00:07.558Z,22.1
2018-10-21T11:02:05.012Z,22
2018-10-21T11:04:05.470Z,22.1
2018-10-21T11:06:05.093Z,22.1
2018-10-21T11:08:08.049Z,22
2018-10-21T11:10:04.762Z,22
2018-10-21T11:12:04.892Z,22
2018-10-21T11:14:07.374Z,22
2018-10-21T11:16:05.192Z,22
2018-10-21T11:18:08.061Z,22
2018-10-21T11:20:12.446Z,22
2018-10-21T11:22:04.751Z,22
2018-10-21T11:24:04.695Z,22
2018-10-21T11:26:04.917Z,22
2018-10-21T11:28:04.886Z,22
2018-10-21T11:30:05.150Z,22
2018-10-21T11:32:07.361Z,22
2018-10-21T11:34:05.139Z,22
2018-10-21T11:36:05.233Z,22
2018-10-21T11:38:04.972Z,21.9
2018-10-21T11:40:04.730Z,21.9
2018-10-21T11:42:09.817Z,22
2018-10-21T11:44:05.530Z,22
2018-10-21T11:46:05.331Z,22
2018-10-21T11:48:05.601Z,22
2018-10-21T11:50:05.417Z,22
2018-10-21T11:52:05.260Z,22
2018-10-21T11:54:05.109Z,22
2018-10-21T11:56:04.856Z,21.9
2018-10-21T11:58:05.580Z,22
2018-10-21T12:00:04.695Z,22
2018-10-21T12:02:05.421Z,22
2018-10-21T12:04:05.158Z,22
2018-10-21T12:06:07.612Z,22
2018-10-21T12:08:05.270Z,21.9
2018-10-21T12:10:07.501Z,22
2018-10-21T12:12:05.168Z,22
2018-10-21T12:14:04.940Z,22
2018-10-21T12:16:05.166Z,22
2018-10-21T12:18:04.920Z,22
2018-10-21T12:20:04.686Z,22
2018-10-21T12:22:05.555Z,22
2018-10-21T12:24:07.323Z,21.9
2018-10-21T12:26:07.602Z,21.9
2018-10-21T12:28:04.919Z,21.9
2018-10-21T12:30:05.424Z,22
2018-10-21T12:32:05.129Z,21.9
2018-10-21T12:34:07.438Z,22
2018-10-21T12:36:05.479Z,22
2018-10-21T12:38:05.303Z,21.9
2018-10-21T12:40:05.111Z,22
2018-10-21T12:42:07.871Z,22
2018-10-21T12:44:08.124Z,22
2018-10-21T12:46:04.883Z,22
2018-10-21T12:48:07.497Z,22
2018-10-21T12:50:05.207Z,22
2018-10-21T12:52:04.960Z,22
2018-10-21T12:54:17.654Z,22
2018-10-21T12:56:05.638Z,22
2018-10-21T12:58:10.275Z,22
2018-10-21T13:00:08.117Z,22.1
2018-10-21T13:02:04.948Z,22.1
2018-10-21T13:04:10.451Z,22.1
2018-10-21T13:06:08.024Z,22.1
2018-10-21T13:08:05.306Z,22.1
2018-10-21T13:10:08.197Z,22.1
2018-10-21T13:12:05.118Z,22.2
2018-10-21T13:14:05.293Z,22.2
2018-10-21T13:16:07.552Z,22.2
2018-10-21T13:18:04.793Z,22.2
2018-10-21T13:20:08.255Z,22.2
2018-10-21T13:22:07.738Z,22.2
2018-10-21T13:24:04.886Z,22.2
2018-10-21T13:26:05.281Z,22.2
2018-10-21T13:28:07.641Z,22.2
2018-10-21T13:30:04.893Z,22.2
2018-10-21T13:32:04.709Z,22.2
2018-10-21T13:34:05.600Z,22.2
2018-10-21T13:36:05.203Z,22.2
2018-10-21T13:38:04.999Z,22.2
2018-10-21T13:40:04.897Z,22.2
2018-10-21T13:42:05.345Z,22.2
2018-10-21T13:44:05.154Z,22.2
2018-10-21T13:46:07.554Z,22.2
2018-10-21T13:48:08.009Z,22.3
2018-10-21T13:50:07.205Z,22.3
2018-10-21T13:52:07.666Z,22.3
2018-10-21T13:54:04.673Z,22.3
2018-10-21T13:56:05.068Z,22.3
2018-10-21T13:58:04.866Z,22.4
2018-10-21T14:00:05.388Z,22.4
2018-10-21T14:02:07.687Z,22.4
2018-10-21T14:04:05.498Z,22.4
2018-10-21T14:06:05.558Z,22.4
2018-10-21T14:08:05.358Z,22.4
2018-10-21T14:10:07.601Z,22.4
2018-10-21T14:12:04.760Z,22.4
2018-10-21T14:14:08.018Z,22.4
2018-10-21T14:16:09.836Z,22.4
2018-10-21T14:18:04.830Z,22.4
2018-10-21T14:20:05.562Z,22.4
2018-10-21T14:22:05.376Z,22.4
2018-10-21T14:24:08.135Z,22.5
2018-10-21T14:26:12.971Z,22.4
2018-10-21T14:28:04.666Z,22.4
2018-10-21T14:30:05.489Z,22.4
2018-10-21T14:32:04.729Z,22.5
2018-10-21T14:34:05.491Z,22.4
2018-10-21T14:36:07.809Z,22.5
2018-10-21T14:38:04.797Z,22.5
2018-10-21T14:40:07.565Z,22.5
2018-10-21T14:42:07.881Z,22.5
2018-10-21T14:44:04.898Z,22.5
2018-10-21T14:46:08.189Z,22.5
2018-10-21T14:48:05.314Z,22.5
2018-10-21T14:50:04.647Z,22.5
2018-10-21T14:52:05.367Z,22.5
2018-10-21T14:54:05.100Z,22.5
2018-10-21T14:56:05.207Z,22.5
2018-10-21T14:58:05.214Z,22.5
2018-10-21T15:00:04.955Z,22.5
2018-10-21T15:02:05.112Z,22.5
2018-10-21T15:04:07.819Z,22.5
2018-10-21T15:06:07.391Z,22.5
2018-10-21T15:08:05.383Z,22.5
2018-10-21T15:10:05.555Z,22.5
2018-10-21T15:12:05.151Z,22.5
2018-10-21T15:14:10.205Z,22.4
2018-10-21T15:16:05.406Z,22.4
2018-10-21T15:18:05.564Z,22.4
2018-10-21T15:20:05.644Z,22.4
2018-10-21T15:22:05.667Z,22.4
2018-10-21T15:24:04.869Z,22.4
2018-10-21T15:26:05.626Z,22.4
2018-10-21T15:28:04.818Z,22.3
2018-10-21T15:30:04.819Z,22.3
2018-10-21T15:32:04.932Z,22.4
2018-10-21T15:34:07.630Z,22.4
2018-10-21T15:36:07.820Z,22.4
2018-10-21T15:38:07.641Z,22.4
2018-10-21T15:40:04.707Z,22.4
2018-10-21T15:42:07.347Z,22.3
2018-10-21T15:44:10.215Z,22.3
2018-10-21T15:46:05.505Z,22.4
2018-10-21T15:48:05.034Z,22.4
2018-10-21T15:50:07.337Z,22.3
2018-10-21T15:52:05.460Z,22.3
2018-10-21T15:54:05.297Z,22.3
2018-10-21T15:56:05.134Z,22.2
2018-10-21T15:58:09.771Z,22.3
2018-10-21T16:00:07.382Z,22.3
2018-10-21T16:02:10.260Z,22.3
2018-10-21T16:04:05.575Z,22.2
2018-10-21T16:06:09.704Z,22.2
2018-10-21T16:08:05.427Z,22.2
2018-10-21T16:10:05.481Z,22.2
2018-10-21T16:12:05.225Z,22.1
2018-10-21T16:14:05.630Z,22.1
2018-10-21T16:16:08.069Z,22.1
2018-10-21T16:18:04.932Z,22.1
2018-10-21T16:20:05.711Z,22.1
2018-10-21T16:22:05.292Z,22.1
2018-10-21T16:24:05.189Z,22.1
2018-10-21T16:26:04.908Z,22
2018-10-21T16:28:05.469Z,22
2018-10-21T16:30:09.920Z,22.1
2018-10-21T16:32:05.728Z,22.1
2018-10-21T16:34:04.674Z,22
2018-10-21T16:36:04.681Z,22
2018-10-21T16:38:04.929Z,21.9
2018-10-21T16:40:12.343Z,21.9
2018-10-21T16:42:05.039Z,21.9
2018-10-21T16:44:04.733Z,21.9
2018-10-21T16:46:05.479Z,21.9
2018-10-21T16:48:05.246Z,21.9
2018-10-21T16:50:07.531Z,21.9
2018-10-21T16:52:07.735Z,21.9
2018-10-21T16:54:08.102Z,21.9
2018-10-21T16:56:05.276Z,21.9
2018-10-21T16:58:10.058Z,21.9
2018-10-21T17:00:05.114Z,21.9
2018-10-21T17:02:05.394Z,21.9
2018-10-21T17:04:05.105Z,22
2018-10-21T17:06:04.791Z,22
2018-10-21T17:08:05.517Z,21.9
2018-10-21T17:10:05.617Z,21.9
2018-10-21T17:12:08.005Z,21.9
2018-10-21T17:14:10.281Z,21.9
2018-10-21T17:16:05.541Z,21.9
2018-10-21T17:18:04.748Z,21.9
2018-10-21T17:20:04.967Z,21.9
2018-10-21T17:22:04.789Z,21.9
2018-10-21T17:24:07.319Z,21.8
2018-10-21T17:26:05.225Z,21.8
2018-10-21T17:28:05.018Z,21.8
2018-10-21T17:30:05.091Z,21.8
2018-10-21T17:32:04.863Z,21.8
2018-10-21T17:34:05.639Z,21.8
2018-10-21T17:36:04.743Z,21.8
2018-10-21T17:38:05.529Z,21.8
2018-10-21T17:40:05.470Z,21.8
2018-10-21T17:42:04.692Z,21.7
2018-10-21T17:44:05.393Z,21.7
2018-10-21T17:46:05.699Z,21.7
2018-10-21T17:48:05.514Z,21.7
2018-10-21T17:50:05.481Z,21.8
2018-10-21T17:52:05.312Z,21.8
2018-10-21T17:54:05.491Z,21.8
2018-10-21T17:56:05.224Z,21.8
2018-10-21T17:58:05.562Z,21.8
2018-10-21T18:00:07.373Z,21.6
2018-10-21T18:02:05.592Z,21.7
2018-10-21T18:04:10.494Z,21.6
2018-10-21T18:06:07.210Z,21.6
2018-10-21T18:08:04.960Z,21.6
2018-10-21T18:10:07.286Z,21.6
2018-10-21T18:12:05.231Z,21.5
2018-10-21T18:14:05.173Z,21.6
2018-10-21T18:16:05.412Z,21.6
2018-10-21T18:18:04.632Z,21.6
2018-10-21T18:20:05.358Z,21.6
2018-10-21T18:22:05.321Z,21.6
2018-10-21T18:24:05.399Z,21.6
2018-10-21T18:26:10.249Z,21.6
2018-10-21T18:28:04.712Z,21.6
2018-10-21T18:30:04.684Z,21.7
2018-10-21T18:32:05.412Z,21.7
2018-10-21T18:34:07.684Z,21.9
2018-10-21T18:36:07.250Z,21.9
2018-10-21T18:38:04.960Z,21.9
2018-10-21T18:40:07.309Z,21.7
2018-10-21T18:42:05.637Z,21.7
2018-10-21T18:44:05.348Z,21.8
2018-10-21T18:46:07.702Z,21.8
2018-10-21T18:48:05.276Z,21.8
2018-10-21T18:50:10.119Z,21.7
2018-10-21T18:52:04.848Z,21.7
2018-10-21T18:54:05.101Z,21.7
2018-10-21T18:56:04.845Z,21.7
2018-10-21T18:58:08.174Z,21.7
2018-10-21T19:00:05.298Z,21.6
2018-10-21T19:02:07.488Z,21.8
2018-10-21T19:04:05.216Z,21.8
2018-10-21T19:06:05.206Z,21.8
2018-10-21T19:08:07.484Z,21.8
2018-10-21T19:10:07.741Z,21.8
2018-10-21T19:12:10.126Z,21.8
2018-10-21T19:14:04.792Z,21.8
2018-10-21T19:16:10.615Z,21.7
2018-10-21T19:18:05.628Z,21.8
2018-10-21T19:20:07.858Z,21.8
2018-10-21T19:22:05.689Z,21.8
2018-10-21T19:24:04.700Z,21.9
2018-10-21T19:26:04.937Z,21.9
2018-10-21T19:28:05.690Z,22
2018-10-21T19:30:04.681Z,22.1
2018-10-21T19:32:07.413Z,21.9
2018-10-21T19:34:05.216Z,21.9
2018-10-21T19:36:05.349Z,21.9
2018-10-21T19:38:07.683Z,21.9
2018-10-21T19:40:04.936Z,21.9
2018-10-21T19:42:07.487Z,21.9
2018-10-21T19:44:04.763Z,21.9
2018-10-21T19:46:05.557Z,21.9
2018-10-21T19:48:05.686Z,21.9
2018-10-21T19:50:05.678Z,21.9
2018-10-21T19:52:10.718Z,21.9
2018-10-21T19:54:04.989Z,21.9
2018-10-21T19:56:04.727Z,21.9
2018-10-21T19:58:10.632Z,21.9
2018-10-21T20:00:04.816Z,21.9
2018-10-21T20:02:05.486Z,22
2018-10-21T20:04:05.238Z,21.9
2018-10-21T20:06:05.244Z,22
2018-10-21T20:08:04.933Z,22
2018-10-21T20:10:04.815Z,22
2018-10-21T20:12:05.552Z,22
2018-10-21T20:14:05.599Z,22
2018-10-21T20:16:05.339Z,22
2018-10-21T20:18:05.583Z,22.1
2018-10-21T20:20:10.635Z,22.1
2018-10-21T20:22:04.934Z,22.1
2018-10-21T20:24:04.861Z,22.1
2018-10-21T20:26:05.535Z,22.1
2018-10-21T20:28:05.273Z,22.2
2018-10-21T20:30:07.981Z,22.1
2018-10-21T20:32:04.787Z,22.2
2018-10-21T20:34:05.523Z,22.2
2018-10-21T20:36:10.466Z,22.2
2018-10-21T20:38:04.796Z,22.2
2018-10-21T20:40:05.691Z,22.2
2018-10-21T20:42:04.738Z,22.2
2018-10-21T20:44:04.735Z,22.2
2018-10-21T20:46:05.571Z,22.2
2018-10-21T20:48:10.718Z,22.1
2018-10-21T20:50:10.311Z,22.1
2018-10-21T20:52:05.593Z,22.2
2018-10-21T20:54:05.356Z,22.2
2018-10-21T20:56:08.072Z,22.1
2018-10-21T20:58:07.585Z,22.2
2018-10-21T21:00:05.552Z,22.2
2018-10-21T21:02:05.604Z,22.1
2018-10-21T21:04:07.919Z,22.2
2018-10-21T21:06:05.659Z,22.2
2018-10-21T21:08:04.791Z,22.2
2018-10-21T21:10:04.664Z,22.3
2018-10-21T21:12:04.856Z,22.3
2018-10-21T21:14:04.891Z,22.3
2018-10-21T21:16:07.910Z,22.3
2018-10-21T21:18:05.565Z,22.3
2018-10-21T21:20:05.497Z,22.3
2018-10-21T21:22:05.211Z,22.2
2018-10-21T21:24:11.467Z,22.4
2018-10-21T21:26:07.612Z,22.4
2018-10-21T21:28:05.345Z,22.4
2018-10-21T21:30:05.531Z,22.4
2018-10-21T21:32:04.745Z,22.4
2018-10-21T21:34:05.536Z,22.5
2018-10-21T21:36:05.601Z,22.5
2018-10-21T21:38:04.665Z,22.3
2018-10-21T21:40:05.396Z,22.2
2018-10-21T21:42:05.524Z,22.1
2018-10-21T21:44:04.753Z,22.2
2018-10-21T21:46:05.468Z,22.1
2018-10-21T21:48:04.661Z,22.1
2018-10-21T21:50:04.731Z,22.1
2018-10-21T21:52:05.433Z,22
2018-10-21T21:54:10.912Z,21.9
2018-10-21T21:56:05.265Z,21.9
2018-10-21T21:58:05.277Z,21.9
2018-10-21T22:00:05.442Z,21.9
2018-10-21T22:02:05.608Z,21.9
2018-10-21T22:04:05.536Z,21.9
2018-10-21T22:06:04.722Z,21.9
2018-10-21T22:08:04.700Z,21.8
2018-10-21T22:10:04.998Z,21.9
2018-10-21T22:12:08.145Z,21.9
2018-10-21T22:14:05.342Z,21.9
2018-10-21T22:16:05.133Z,21.8
2018-10-21T22:18:05.066Z,21.8
2018-10-21T22:20:05.131Z,21.8
2018-10-21T22:22:07.933Z,21.9
2018-10-21T22:24:04.994Z,21.9
2018-10-21T22:26:07.509Z,21.9
2018-10-21T22:28:12.489Z,21.8
2018-10-21T22:30:04.991Z,21.8
2018-10-21T22:32:05.058Z,21.9
2018-10-21T22:34:07.353Z,21.8
2018-10-21T22:36:05.427Z,21.7
2018-10-21T22:38:05.537Z,21.7
2018-10-21T22:40:05.173Z,21.8
2018-10-21T22:42:05.403Z,21.8
2018-10-21T22:44:05.368Z,21.8
2018-10-21T22:46:05.269Z,21.8
2018-10-21T22:48:05.620Z,21.8
2018-10-21T22:50:05.308Z,21.8
2018-10-21T22:52:05.751Z,21.7
2018-10-21T22:54:04.819Z,21.8
2018-10-21T22:56:05.226Z,21.7
2018-10-21T22:58:05.023Z,21.7
2018-10-21T23:00:05.178Z,21.7
2018-10-21T23:02:05.174Z,21.7
2018-10-21T23:04:10.011Z,21.7
2018-10-21T23:06:05.158Z,21.7
2018-10-21T23:08:05.250Z,21.8
2018-10-21T23:10:10.141Z,21.7
2018-10-21T23:12:04.889Z,21.7
2018-10-21T23:14:05.030Z,21.7
2018-10-21T23:16:05.349Z,21.7
2018-10-21T23:18:05.148Z,21.8
2018-10-21T23:20:05.167Z,21.7
2018-10-21T23:22:07.953Z,21.6
2018-10-21T23:24:05.009Z,21.6
2018-10-21T23:26:04.969Z,21.7
2018-10-21T23:28:04.693Z,21.7
2018-10-21T23:30:04.964Z,21.6
2018-10-21T23:32:05.071Z,21.7
2018-10-21T23:34:04.814Z,21.7
2018-10-21T23:36:10.183Z,21.7
2018-10-21T23:38:04.929Z,21.7
2018-10-21T23:40:07.293Z,21.6
2018-10-21T23:42:05.459Z,21.6
2018-10-21T23:44:10.593Z,21.6
2018-10-21T23:46:04.820Z,21.6
2018-10-21T23:48:04.732Z,21.7
2018-10-21T23:50:04.805Z,21.7
2018-10-21T23:52:05.590Z,21.7
2018-10-21T23:54:04.652Z,21.6
2018-10-21T23:56:04.768Z,21.6
2018-10-21T23:58:08.069Z,21.6
